D50

Crosby Municipal Airport

Crosby, North Dakota, USA
METAR KD50 151235Z AUTO 32015KT 10SM FEW034 BKN044 01/02 A2990 RMK AO2
Observed Flight Rules
Nov-15 @ 12:35 UTC (7 minutes ago) Visual Flight Rules
Wind Visibility Clouds
320° at 15 knots 10 miles
  • Few at 3,400' AGL
  • Broken at 4,400' AGL
Temperatures Readings
Current 1°C / 34°F
Dewpoint 2°C / 36°F
Humidity 107%
Altimeter 29.9" Hg
Pressure 1013 hPa
Elevation 595
METAR KD50 151235Z AUTO 32015KT 10SM FEW034 BKN044 01/02 A2990 RMK AO2
Observed Flight Rules
Nov-15 @ 12:35 UTC
(7 minutes ago)
VFR
Wind Visibility
320° at 15 knots 10 miles
Clouds
  • Few at 3,400' AGL
  • Broken at 4,400' AGL
Temperature Dewpoint
1°C / 34°F 2°C / 36°F
Humidity Altimeter Pressure
107% 29.9" Hg 1013 hPa